sensor_id;sensor_type;location;lat;lon;timestamp;pressure;altitude;pressure_sealevel;temperature;humidity
44001;BME280;29660;42.892;24.710;2023-08-01T00:01:48;96575.63;;;18.07;100.00
44001;BME280;29660;42.892;24.710;2023-08-01T00:07:10;96671.78;;;18.55;100.00
44001;BME280;29660;42.892;24.710;2023-08-01T00:12:32;96678.25;;;18.38;100.00
44001;BME280;29660;42.892;24.710;2023-08-01T00:17:54;96651.53;;;18.33;100.00
44001;BME280;29660;42.892;24.710;2023-08-01T00:23:16;96652.47;;;18.25;100.00
44001;BME280;29660;42.892;24.710;2023-08-01T00:28:39;96689.38;;;18.21;100.00
44001;BME280;29660;42.892;24.710;2023-08-01T00:34:01;96626.66;;;18.12;100.00
44001;BME280;29660;42.892;24.710;2023-08-01T00:39:23;96520.34;;;17.45;100.00
44001;BME280;29660;42.892;24.710;2023-08-01T00:44:46;96611.53;;;17.95;100.00
44001;BME280;29660;42.892;24.710;2023-08-01T00:50:09;96585.41;;;17.83;100.00
44001;BME280;29660;42.892;24.710;2023-08-01T00:55:32;96550.91;;;17.36;100.00
44001;BME280;29660;42.892;24.710;2023-08-01T01:00:55;96625.88;;;17.83;100.00
44001;BME280;29660;42.892;24.710;2023-08-01T01:06:46;96607.13;;;17.75;100.00
44001;BME280;29660;42.892;24.710;2023-08-01T01:12:09;96611.84;;;17.78;100.00
44001;BME280;29660;42.892;24.710;2023-08-01T01:17:31;96608.69;;;17.76;100.00
44001;BME280;29660;42.892;24.710;2023-08-01T01:22:55;96613.06;;;17.68;100.00
44001;BME280;29660;42.892;24.710;2023-08-01T01:28:18;96594.53;;;17.66;100.00
44001;BME280;29660;42.892;24.710;2023-08-01T01:33:41;96532.34;;;17.19;100.00
44001;BME280;29660;42.892;24.710;2023-08-01T01:39:03;96602.81;;;17.46;100.00
44001;BME280;29660;42.892;24.710;2023-08-01T01:44:26;96596.28;;;17.47;100.00
44001;BME280;29660;42.892;24.710;2023-08-01T01:49:48;96585.97;;;17.36;100.00
44001;BME280;29660;42.892;24.710;2023-08-01T01:55:10;96582.50;;;17.36;100.00
44001;BME280;29660;42.892;24.710;2023-08-01T02:00:33;96569.75;;;17.08;100.00
44001;BME280;29660;42.892;24.710;2023-08-01T02:05:56;95929.97;;;12.74;100.00
44001;BME280;29660;42.892;24.710;2023-08-01T02:11:18;96476.75;;;16.13;100.00
44001;BME280;29660;42.892;24.710;2023-08-01T02:16:40;96555.03;;;16.57;100.00
44001;BME280;29660;42.892;24.710;2023-08-01T02:22:04;96600.41;;;16.79;100.00
44001;BME280;29660;42.892;24.710;2023-08-01T02:27:26;96614.63;;;16.67;100.00
44001;BME280;29660;42.892;24.710;2023-08-01T02:32:48;96481.06;;;15.60;100.00
44001;BME280;29660;42.892;24.710;2023-08-01T02:38:10;96619.59;;;16.32;100.00
44001;BME280;29660;42.892;24.710;2023-08-01T02:43:32;96541.56;;;15.87;100.00
44001;BME280;29660;42.892;24.710;2023-08-01T02:48:57;96613.09;;;16.33;100.00
44001;BME280;29660;42.892;24.710;2023-08-01T02:54:19;96611.28;;;16.25;100.00
44001;BME280;29660;42.892;24.710;2023-08-01T02:59:41;96608.94;;;16.24;100.00
44001;BME280;29660;42.892;24.710;2023-08-01T03:05:08;96599.47;;;16.05;100.00
44001;BME280;29660;42.892;24.710;2023-08-01T03:10:30;96560.03;;;15.76;100.00
44001;BME280;29660;42.892;24.710;2023-08-01T03:15:57;96617.94;;;16.07;100.00
44001;BME280;29660;42.892;24.710;2023-08-01T03:21:19;96624.44;;;16.06;100.00
44001;BME280;29660;42.892;24.710;2023-08-01T03:26:42;96605.78;;;15.88;100.00
44001;BME280;29660;42.892;24.710;2023-08-01T03:32:04;96622.22;;;16.08;100.00
44001;BME280;29660;42.892;24.710;2023-08-01T03:37:26;96509.84;;;15.26;100.00
44001;BME280;29660;42.892;24.710;2023-08-01T03:42:49;96624.13;;;16.07;100.00
44001;BME280;29660;42.892;24.710;2023-08-01T03:48:11;96327.19;;;14.30;100.00
44001;BME280;29660;42.892;24.710;2023-08-01T03:53:33;96616.28;;;16.48;100.00
44001;BME280;29660;42.892;24.710;2023-08-01T03:58:57;96630.47;;;16.81;100.00
44001;BME280;29660;42.892;24.710;2023-08-01T04:04:19;96511.72;;;16.50;100.00
44001;BME280;29660;42.892;24.710;2023-08-01T04:09:42;96623.16;;;17.83;100.00
44001;BME280;29660;42.892;24.710;2023-08-01T04:15:04;96531.16;;;18.01;100.00
44001;BME280;29660;42.892;24.710;2023-08-01T04:20:27;96617.91;;;19.42;100.00
44001;BME280;29660;42.892;24.710;2023-08-01T04:25:49;96611.81;;;20.03;95.50
44001;BME280;29660;42.892;24.710;2023-08-01T04:31:11;96592.41;;;20.40;92.62
44001;BME280;29660;42.892;24.710;2023-08-01T04:36:33;96606.38;;;21.14;87.62
44001;BME280;29660;42.892;24.710;2023-08-01T04:41:55;96601.38;;;21.69;83.72
44001;BME280;29660;42.892;24.710;2023-08-01T04:47:18;96608.19;;;22.20;76.20
44001;BME280;29660;42.892;24.710;2023-08-01T04:52:41;96501.00;;;21.39;75.68
44001;BME280;29660;42.892;24.710;2023-08-01T04:58:03;96612.66;;;22.05;75.19
44001;BME280;29660;42.892;24.710;2023-08-01T05:03:25;96621.31;;;22.14;75.79
44001;BME280;29660;42.892;24.710;2023-08-01T05:08:47;96645.25;;;22.39;74.06
44001;BME280;29660;42.892;24.710;2023-08-01T05:14:09;96610.25;;;22.30;73.67
44001;BME280;29660;42.892;24.710;2023-08-01T05:19:31;96607.41;;;22.57;71.52
44001;BME280;29660;42.892;24.710;2023-08-01T05:24:54;96627.31;;;22.71;70.44
44001;BME280;29660;42.892;24.710;2023-08-01T05:30:16;96622.72;;;22.75;70.06
44001;BME280;29660;42.892;24.710;2023-08-01T05:35:38;96466.41;;;21.66;73.08
44001;BME280;29660;42.892;24.710;2023-08-01T05:41:00;96622.41;;;22.84;71.74
44001;BME280;29660;42.892;24.710;2023-08-01T05:46:23;96613.69;;;22.64;74.89
44001;BME280;29660;42.892;24.710;2023-08-01T05:51:45;96511.16;;;22.17;71.50
44001;BME280;29660;42.892;24.710;2023-08-01T05:57:09;96347.38;;;21.27;73.71
44001;BME280;29660;42.892;24.710;2023-08-01T06:02:32;96597.00;;;23.14;71.36
44001;BME280;29660;42.892;24.710;2023-08-01T06:07:54;96590.38;;;23.11;70.45
44001;BME280;29660;42.892;24.710;2023-08-01T06:13:16;96595.84;;;23.15;72.93
44001;BME280;29660;42.892;24.710;2023-08-01T06:18:38;96587.69;;;23.15;71.69
44001;BME280;29660;42.892;24.710;2023-08-01T06:24:00;96508.53;;;22.75;69.01
44001;BME280;29660;42.892;24.710;2023-08-01T06:29:23;96595.91;;;23.25;69.31
44001;BME280;29660;42.892;24.710;2023-08-01T06:34:46;96587.47;;;23.45;64.63
44001;BME280;29660;42.892;24.710;2023-08-01T06:40:09;96581.31;;;23.55;63.11
44001;BME280;29660;42.892;24.710;2023-08-01T06:45:31;96579.00;;;23.64;60.62
44001;BME280;29660;42.892;24.710;2023-08-01T06:50:53;96579.47;;;23.70;58.65
44001;BME280;29660;42.892;24.710;2023-08-01T06:56:15;96508.91;;;23.40;57.97
44001;BME280;29660;42.892;24.710;2023-08-01T07:01:38;96570.63;;;23.94;53.05
44001;BME280;29660;42.892;24.710;2023-08-01T07:07:02;96482.16;;;23.60;56.72
44001;BME280;29660;42.892;24.710;2023-08-01T07:12:24;96571.06;;;24.29;55.96
44001;BME280;29660;42.892;24.710;2023-08-01T07:17:47;96569.59;;;24.49;54.28
44001;BME280;29660;42.892;24.710;2023-08-01T07:23:10;96488.13;;;24.15;52.01
44001;BME280;29660;42.892;24.710;2023-08-01T07:28:32;96545.03;;;24.70;53.81
44001;BME280;29660;42.892;24.710;2023-08-01T07:33:54;96566.06;;;24.91;51.58
44001;BME280;29660;42.892;24.710;2023-08-01T07:39:16;96543.47;;;25.12;50.31
44001;BME280;29660;42.892;24.710;2023-08-01T07:44:39;96458.56;;;24.78;50.31
44001;BME280;29660;42.892;24.710;2023-08-01T07:50:01;96441.41;;;24.85;47.88
44001;BME280;29660;42.892;24.710;2023-08-01T07:55:23;96532.75;;;25.82;47.72
44001;BME280;29660;42.892;24.710;2023-08-01T08:00:45;96387.84;;;25.27;48.15
44001;BME280;29660;42.892;24.710;2023-08-01T08:06:07;96489.81;;;25.83;47.27
44001;BME280;29660;42.892;24.710;2023-08-01T08:11:30;96537.50;;;26.34;45.49
44001;BME280;29660;42.892;24.710;2023-08-01T08:16:52;96534.53;;;26.70;44.90
44001;BME280;29660;42.892;24.710;2023-08-01T08:22:14;96535.97;;;26.85;44.11
44001;BME280;29660;42.892;24.710;2023-08-01T08:27:36;96528.03;;;26.98;45.34
44001;BME280;29660;42.892;24.710;2023-08-01T08:32:58;96169.38;;;24.92;44.11
44001;BME280;29660;42.892;24.710;2023-08-01T08:38:26;96515.34;;;27.14;43.29
44001;BME280;29660;42.892;24.710;2023-08-01T08:43:48;96505.53;;;27.21;41.08
44001;BME280;29660;42.892;24.710;2023-08-01T08:49:11;96504.50;;;27.41;40.79
44001;BME280;29660;42.892;24.710;2023-08-01T08:54:35;96397.38;;;26.67;38.45
44001;BME280;29660;42.892;24.710;2023-08-01T08:59:59;96495.66;;;27.61;39.27
44001;BME280;29660;42.892;24.710;2023-08-01T09:05:27;96324.19;;;26.41;38.37
44001;BME280;29660;42.892;24.710;2023-08-01T09:10:52;96494.44;;;27.96;39.47
44001;BME280;29660;42.892;24.710;2023-08-01T09:16:15;96493.53;;;28.06;38.06
44001;BME280;29660;42.892;24.710;2023-08-01T09:21:38;96467.66;;;28.07;39.87
44001;BME280;29660;42.892;24.710;2023-08-01T09:27:04;96471.13;;;28.11;39.41
44001;BME280;29660;42.892;24.710;2023-08-01T09:32:26;96470.53;;;28.24;38.25
44001;BME280;29660;42.892;24.710;2023-08-01T09:37:49;96370.69;;;27.71;38.04
44001;BME280;29660;42.892;24.710;2023-08-01T09:43:13;96471.28;;;28.51;38.07
44001;BME280;29660;42.892;24.710;2023-08-01T09:48:35;96382.78;;;28.00;38.24
44001;BME280;29660;42.892;24.710;2023-08-01T09:53:57;96465.16;;;28.44;38.11
44001;BME280;29660;42.892;24.710;2023-08-01T09:59:22;96272.56;;;27.11;38.67
44001;BME280;29660;42.892;24.710;2023-08-01T10:04:45;96373.00;;;27.99;39.41
44001;BME280;29660;42.892;24.710;2023-08-01T10:10:08;96109.72;;;26.73;38.95
44001;BME280;29660;42.892;24.710;2023-08-01T10:15:31;96431.63;;;28.99;37.61
44001;BME280;29660;42.892;24.710;2023-08-01T10:20:54;96419.88;;;29.19;38.98
44001;BME280;29660;42.892;24.710;2023-08-01T10:26:16;96422.44;;;29.09;38.05
44001;BME280;29660;42.892;24.710;2023-08-01T10:31:38;96385.84;;;28.73;38.44
44001;BME280;29660;42.892;24.710;2023-08-01T10:37:01;96375.22;;;28.75;38.77
44001;BME280;29660;42.892;24.710;2023-08-01T10:42:23;96402.63;;;29.38;39.11
44001;BME280;29660;42.892;24.710;2023-08-01T10:47:45;96387.50;;;29.66;38.59
44001;BME280;29660;42.892;24.710;2023-08-01T10:53:09;96378.34;;;29.89;38.20
44001;BME280;29660;42.892;24.710;2023-08-01T10:58:31;96385.19;;;29.81;38.18
44001;BME280;29660;42.892;24.710;2023-08-01T11:03:55;96383.91;;;29.69;37.82
44001;BME280;29660;42.892;24.710;2023-08-01T11:09:25;96371.63;;;29.90;37.58
44001;BME280;29660;42.892;24.710;2023-08-01T11:14:48;96357.09;;;30.06;37.61
44001;BME280;29660;42.892;24.710;2023-08-01T11:20:11;96348.44;;;30.07;37.29
44001;BME280;29660;42.892;24.710;2023-08-01T11:25:43;96344.97;;;30.36;36.74
44001;BME280;29660;42.892;24.710;2023-08-01T11:31:13;96278.56;;;30.21;35.96
44001;BME280;29660;42.892;24.710;2023-08-01T11:36:36;96275.53;;;30.32;36.54
44001;BME280;29660;42.892;24.710;2023-08-01T11:42:00;96336.97;;;30.71;35.80
44001;BME280;29660;42.892;24.710;2023-08-01T11:47:23;96324.88;;;30.39;35.34
44001;BME280;29660;42.892;24.710;2023-08-01T11:52:46;96324.69;;;30.30;36.22
44001;BME280;29660;42.892;24.710;2023-08-01T11:58:09;96324.28;;;30.61;37.09
44001;BME280;29660;42.892;24.710;2023-08-01T12:03:31;96279.47;;;30.60;36.27
44001;BME280;29660;42.892;24.710;2023-08-01T12:09:06;96250.13;;;30.41;35.97
44001;BME280;29660;42.892;24.710;2023-08-01T12:14:29;96303.91;;;31.00;36.75
44001;BME280;29660;42.892;24.710;2023-08-01T12:19:51;96284.53;;;30.91;36.22
44001;BME280;29660;42.892;24.710;2023-08-01T12:25:13;96303.03;;;31.03;35.34
44001;BME280;29660;42.892;24.710;2023-08-01T12:30:35;96254.28;;;30.62;35.93
44001;BME280;29660;42.892;24.710;2023-08-01T12:36:02;96293.91;;;31.19;36.46
44001;BME280;29660;42.892;24.710;2023-08-01T12:41:24;96273.19;;;31.01;35.50
44001;BME280;29660;42.892;24.710;2023-08-01T12:47:06;96286.59;;;30.87;35.76
44001;BME280;29660;42.892;24.710;2023-08-01T12:52:30;96258.31;;;31.12;36.23
44001;BME280;29660;42.892;24.710;2023-08-01T12:57:52;96264.16;;;31.01;35.83
44001;BME280;29660;42.892;24.710;2023-08-01T13:03:14;96259.88;;;31.38;35.96
44001;BME280;29660;42.892;24.710;2023-08-01T13:08:36;96246.88;;;31.26;35.71
44001;BME280;29660;42.892;24.710;2023-08-01T13:13:58;96262.19;;;31.14;35.36
44001;BME280;29660;42.892;24.710;2023-08-01T13:19:21;96217.56;;;31.32;35.42
44001;BME280;29660;42.892;24.710;2023-08-01T13:24:45;96206.22;;;31.17;36.01
44001;BME280;29660;42.892;24.710;2023-08-01T13:30:09;96215.81;;;31.38;36.35
44001;BME280;29660;42.892;24.710;2023-08-01T13:35:31;96240.59;;;31.25;36.00
44001;BME280;29660;42.892;24.710;2023-08-01T13:40:53;96230.78;;;31.24;36.23
44001;BME280;29660;42.892;24.710;2023-08-01T13:46:16;96151.72;;;30.74;37.02
44001;BME280;29660;42.892;24.710;2023-08-01T13:51:50;96261.63;;;31.07;36.48
44001;BME280;29660;42.892;24.710;2023-08-01T13:57:12;96204.25;;;31.05;36.93
44001;BME280;29660;42.892;24.710;2023-08-01T14:02:34;96157.31;;;30.83;36.53
44001;BME280;29660;42.892;24.710;2023-08-01T14:07:57;96221.41;;;31.22;36.85
44001;BME280;29660;42.892;24.710;2023-08-01T14:13:21;96217.66;;;31.16;36.78
44001;BME280;29660;42.892;24.710;2023-08-01T14:18:44;96218.44;;;31.03;37.30
44001;BME280;29660;42.892;24.710;2023-08-01T14:24:06;96213.16;;;30.96;37.14
44001;BME280;29660;42.892;24.710;2023-08-01T14:29:28;96213.69;;;30.91;37.03
44001;BME280;29660;42.892;24.710;2023-08-01T14:34:50;96199.06;;;30.82;37.94
44001;BME280;29660;42.892;24.710;2023-08-01T14:40:12;96189.91;;;30.85;37.99
44001;BME280;29660;42.892;24.710;2023-08-01T14:45:37;95618.63;;;27.21;38.17
44001;BME280;29660;42.892;24.710;2023-08-01T14:51:05;96127.66;;;30.36;38.69
44001;BME280;29660;42.892;24.710;2023-08-01T14:56:27;96179.56;;;30.76;38.42
44001;BME280;29660;42.892;24.710;2023-08-01T15:01:49;96181.22;;;30.73;38.36
44001;BME280;29660;42.892;24.710;2023-08-01T15:07:11;96188.34;;;30.58;38.54
44001;BME280;29660;42.892;24.710;2023-08-01T15:12:34;96186.19;;;30.49;38.96
44001;BME280;29660;42.892;24.710;2023-08-01T15:17:56;96178.69;;;30.37;39.75
44001;BME280;29660;42.892;24.710;2023-08-01T15:23:18;96186.94;;;30.37;40.06
44001;BME280;29660;42.892;24.710;2023-08-01T15:28:40;96064.69;;;29.54;40.07
44001;BME280;29660;42.892;24.710;2023-08-01T15:34:02;96134.69;;;29.95;40.64
44001;BME280;29660;42.892;24.710;2023-08-01T15:39:25;96179.63;;;30.18;41.04
44001;BME280;29660;42.892;24.710;2023-08-01T15:44:47;96180.34;;;30.05;41.48
44001;BME280;29660;42.892;24.710;2023-08-01T15:50:09;96186.25;;;29.91;41.09
44001;BME280;29660;42.892;24.710;2023-08-01T15:55:31;96186.94;;;29.79;41.41
44001;BME280;29660;42.892;24.710;2023-08-01T16:00:54;96178.00;;;29.75;40.99
44001;BME280;29660;42.892;24.710;2023-08-01T16:06:16;96164.66;;;29.44;41.80
44001;BME280;29660;42.892;24.710;2023-08-01T16:11:38;96127.53;;;29.07;41.83
44001;BME280;29660;42.892;24.710;2023-08-01T16:17:00;96178.75;;;29.30;42.09
44001;BME280;29660;42.892;24.710;2023-08-01T16:22:22;96190.25;;;29.25;42.98
44001;BME280;29660;42.892;24.710;2023-08-01T16:27:44;96190.50;;;29.14;43.50
44001;BME280;29660;42.892;24.710;2023-08-01T16:33:07;96192.72;;;29.03;43.79
44001;BME280;29660;42.892;24.710;2023-08-01T16:38:29;96194.66;;;28.86;46.57
44001;BME280;29660;42.892;24.710;2023-08-01T16:43:51;96186.03;;;28.68;49.01
44001;BME280;29660;42.892;24.710;2023-08-01T16:49:16;96194.59;;;28.53;50.83
44001;BME280;29660;42.892;24.710;2023-08-01T16:54:43;96190.84;;;28.24;54.05
44001;BME280;29660;42.892;24.710;2023-08-01T17:00:06;96112.47;;;27.43;55.47
44001;BME280;29660;42.892;24.710;2023-08-01T17:05:30;96214.53;;;27.71;59.95
44001;BME280;29660;42.892;24.710;2023-08-01T17:10:53;95923.66;;;25.48;61.03
44001;BME280;29660;42.892;24.710;2023-08-01T17:16:15;96228.00;;;27.07;64.27
44001;BME280;29660;42.892;24.710;2023-08-01T17:21:37;96168.06;;;26.32;68.44
44001;BME280;29660;42.892;24.710;2023-08-01T17:26:59;96237.69;;;26.58;70.87
44001;BME280;29660;42.892;24.710;2023-08-01T17:32:21;96244.22;;;26.33;73.65
44001;BME280;29660;42.892;24.710;2023-08-01T17:37:43;96241.22;;;26.20;74.32
44001;BME280;29660;42.892;24.710;2023-08-01T17:43:06;96138.66;;;25.33;76.83
44001;BME280;29660;42.892;24.710;2023-08-01T17:48:28;96215.69;;;25.55;78.97
44001;BME280;29660;42.892;24.710;2023-08-01T17:53:50;96255.91;;;25.51;80.79
44001;BME280;29660;42.892;24.710;2023-08-01T17:59:12;96263.44;;;25.33;80.97
44001;BME280;29660;42.892;24.710;2023-08-01T18:04:41;96192.94;;;24.61;82.69
44001;BME280;29660;42.892;24.710;2023-08-01T18:10:06;96269.53;;;24.92;83.30
44001;BME280;29660;42.892;24.710;2023-08-01T18:15:28;96097.19;;;23.64;85.12
44001;BME280;29660;42.892;24.710;2023-08-01T18:20:58;96288.75;;;24.56;89.02
44001;BME280;29660;42.892;24.710;2023-08-01T18:26:23;96288.84;;;24.24;90.28
44001;BME280;29660;42.892;24.710;2023-08-01T18:31:46;96298.97;;;24.20;90.78
44001;BME280;29660;42.892;24.710;2023-08-01T18:37:08;96199.88;;;23.35;91.07
44001;BME280;29660;42.892;24.710;2023-08-01T18:42:30;96309.53;;;23.86;92.56
44001;BME280;29660;42.892;24.710;2023-08-01T18:47:52;96315.00;;;23.79;92.75
44001;BME280;29660;42.892;24.710;2023-08-01T18:53:17;96314.56;;;23.55;94.22
44001;BME280;29660;42.892;24.710;2023-08-01T18:58:40;96208.69;;;22.71;94.48
44001;BME280;29660;42.892;24.710;2023-08-01T19:04:03;96298.59;;;23.28;95.20
44001;BME280;29660;42.892;24.710;2023-08-01T19:09:25;96316.84;;;23.21;97.73
44001;BME280;29660;42.892;24.710;2023-08-01T19:14:47;96219.94;;;22.52;97.81
44001;BME280;29660;42.892;24.710;2023-08-01T19:20:10;96188.38;;;22.22;98.60
44001;BME280;29660;42.892;24.710;2023-08-01T19:25:32;96310.13;;;22.90;98.98
44001;BME280;29660;42.892;24.710;2023-08-01T19:30:54;96312.81;;;22.75;99.38
44001;BME280;29660;42.892;24.710;2023-08-01T19:36:16;96311.53;;;22.55;100.00
44001;BME280;29660;42.892;24.710;2023-08-01T19:41:38;96314.91;;;22.30;100.00
44001;BME280;29660;42.892;24.710;2023-08-01T19:47:02;96301.25;;;22.20;100.00
44001;BME280;29660;42.892;24.710;2023-08-01T19:52:24;96291.44;;;22.01;100.00
44001;BME280;29660;42.892;24.710;2023-08-01T19:57:47;96288.19;;;21.85;100.00
44001;BME280;29660;42.892;24.710;2023-08-01T20:03:09;96294.34;;;21.74;100.00
44001;BME280;29660;42.892;24.710;2023-08-01T20:08:32;96092.75;;;20.26;100.00
44001;BME280;29660;42.892;24.710;2023-08-01T20:13:54;96296.88;;;21.53;100.00
44001;BME280;29660;42.892;24.710;2023-08-01T20:19:17;96298.72;;;21.38;100.00
44001;BME280;29660;42.892;24.710;2023-08-01T20:24:43;96296.22;;;21.22;100.00
44001;BME280;29660;42.892;24.710;2023-08-01T20:30:06;96323.56;;;21.10;100.00
44001;BME280;29660;42.892;24.710;2023-08-01T20:35:29;96297.53;;;21.02;100.00
44001;BME280;29660;42.892;24.710;2023-08-01T20:40:51;96254.47;;;20.56;100.00
44001;BME280;29660;42.892;24.710;2023-08-01T20:46:13;96291.94;;;20.84;100.00
44001;BME280;29660;42.892;24.710;2023-08-01T20:51:35;96296.19;;;20.85;100.00
44001;BME280;29660;42.892;24.710;2023-08-01T20:56:57;96222.53;;;20.12;100.00
44001;BME280;29660;42.892;24.710;2023-08-01T21:02:20;96276.34;;;20.44;100.00
44001;BME280;29660;42.892;24.710;2023-08-01T21:07:42;96232.47;;;20.01;100.00
44001;BME280;29660;42.892;24.710;2023-08-01T21:13:04;96285.09;;;20.33;100.00
44001;BME280;29660;42.892;24.710;2023-08-01T21:18:28;96273.28;;;20.19;100.00
44001;BME280;29660;42.892;24.710;2023-08-01T21:23:50;96299.38;;;20.30;100.00
44001;BME280;29660;42.892;24.710;2023-08-01T21:29:13;96208.91;;;19.75;100.00
44001;BME280;29660;42.892;24.710;2023-08-01T21:34:35;96293.41;;;20.18;100.00
44001;BME280;29660;42.892;24.710;2023-08-01T21:39:57;96251.75;;;19.69;100.00
44001;BME280;29660;42.892;24.710;2023-08-01T21:45:20;96213.28;;;19.33;100.00
44001;BME280;29660;42.892;24.710;2023-08-01T21:50:42;96272.34;;;19.77;100.00
44001;BME280;29660;42.892;24.710;2023-08-01T21:56:04;96271.47;;;19.70;100.00
44001;BME280;29660;42.892;24.710;2023-08-01T22:01:26;96268.53;;;19.59;100.00
44001;BME280;29660;42.892;24.710;2023-08-01T22:06:48;96230.31;;;19.11;100.00
44001;BME280;29660;42.892;24.710;2023-08-01T22:12:11;95789.06;;;16.20;100.00
44001;BME280;29660;42.892;24.710;2023-08-01T22:17:33;96273.63;;;19.37;100.00
44001;BME280;29660;42.892;24.710;2023-08-01T22:22:55;96213.53;;;19.02;100.00
44001;BME280;29660;42.892;24.710;2023-08-01T22:28:18;95630.72;;;15.10;100.00
44001;BME280;29660;42.892;24.710;2023-08-01T22:33:41;96186.03;;;18.73;100.00
44001;BME280;29660;42.892;24.710;2023-08-01T22:39:03;96241.41;;;19.06;100.00
44001;BME280;29660;42.892;24.710;2023-08-01T22:44:25;96248.31;;;19.03;100.00
44001;BME280;29660;42.892;24.710;2023-08-01T22:49:47;96097.25;;;18.06;100.00
44001;BME280;29660;42.892;24.710;2023-08-01T22:55:24;96105.25;;;18.03;100.00
44001;BME280;29660;42.892;24.710;2023-08-01T23:00:47;96098.88;;;17.91;100.00
44001;BME280;29660;42.892;24.710;2023-08-01T23:06:13;96125.28;;;18.02;100.00
44001;BME280;29660;42.892;24.710;2023-08-01T23:11:36;96251.13;;;18.87;100.00
44001;BME280;29660;42.892;24.710;2023-08-01T23:16:59;96247.16;;;18.81;100.00
44001;BME280;29660;42.892;24.710;2023-08-01T23:22:22;96171.56;;;18.23;100.00
44001;BME280;29660;42.892;24.710;2023-08-01T23:27:44;96182.09;;;18.28;100.00
44001;BME280;29660;42.892;24.710;2023-08-01T23:33:06;96082.63;;;17.69;100.00
44001;BME280;29660;42.892;24.710;2023-08-01T23:38:29;96005.69;;;17.16;100.00
44001;BME280;29660;42.892;24.710;2023-08-01T23:43:51;96166.63;;;18.25;100.00
44001;BME280;29660;42.892;24.710;2023-08-01T23:49:13;96229.69;;;18.56;100.00
44001;BME280;29660;42.892;24.710;2023-08-01T23:54:35;96230.78;;;18.55;100.00
44001;BME280;29660;42.892;24.710;2023-08-01T23:59:57;96231.38;;;18.45;100.00
